Terminal Aerodrome Forecast
Issued by NWS Melbourne, FL

Home | Current Version | Previous Version | Text Only | Print | Product List | Glossary On
Versions: 1 2 3 4 5 6 7 8 9 10 11 12 13
347
FTUS42 KMLB 271732
TAFDAB
TAF
KDAB 271732Z 2718/2818 07013G19KT P6SM SCT040 SCT070
     FM280200 05002KT P6SM FEW020
     FM281400 04009KT P6SM SCT040=

USA.gov is the U.S. government's official web portal to all federal, state and local government web resources and services.